createdAt,value
2019-05-29T00:02:05.873Z,71.26
2019-05-29T00:04:16.865Z,71.61
2019-05-29T00:06:27.688Z,71.52
2019-05-29T00:08:38.543Z,71.67
2019-05-29T00:10:49.368Z,72.12
2019-05-29T00:13:00.202Z,72.04
2019-05-29T00:15:12.387Z,72.14
2019-05-29T00:17:23.399Z,72.32
2019-05-29T00:19:34.240Z,73.26
2019-05-29T00:21:45.047Z,73.09
2019-05-29T00:23:55.996Z,73.14
2019-05-29T00:26:06.848Z,73.58
2019-05-29T00:28:17.633Z,73.76
2019-05-29T00:30:28.487Z,74.40
2019-05-29T00:32:39.396Z,74.55
2019-05-29T00:34:50.261Z,74.63
2019-05-29T00:37:01.089Z,74.97
2019-05-29T00:39:12.727Z,75.51
2019-05-29T00:41:23.754Z,76.07
2019-05-29T00:43:34.590Z,76.68
2019-05-29T00:45:45.416Z,77.24
2019-05-29T00:47:56.840Z,77.96
2019-05-29T00:50:08.098Z,78.25
2019-05-29T00:52:19.027Z,78.42
2019-05-29T00:54:29.850Z,78.83
2019-05-29T00:56:40.671Z,79.01
2019-05-29T00:58:51.640Z,78.66
2019-05-29T01:01:02.562Z,78.68
2019-05-29T01:03:13.768Z,79.10
2019-05-29T01:05:24.809Z,78.85
2019-05-29T01:07:35.645Z,79.04
2019-05-29T01:09:46.468Z,79.22
2019-05-29T01:11:57.297Z,79.53
2019-05-29T01:14:08.136Z,79.34
2019-05-29T01:16:19.582Z,79.34
2019-05-29T01:18:30.590Z,79.73
2019-05-29T01:20:41.416Z,80.16
2019-05-29T01:22:52.243Z,80.37
2019-05-29T01:25:04.326Z,80.73
2019-05-29T01:27:15.208Z,81.26
2019-05-29T01:29:26.041Z,81.02
2019-05-29T01:31:36.866Z,80.54
2019-05-29T01:33:47.672Z,80.54
2019-05-29T01:35:58.525Z,81.04
2019-05-29T01:38:09.459Z,81.08
2019-05-29T01:40:25.157Z,81.24
2019-05-29T01:42:33.006Z,81.53
2019-05-29T01:44:43.865Z,81.36
2019-05-29T01:46:54.726Z,81.04
2019-05-29T01:49:05.560Z,80.60
2019-05-29T01:53:28.415Z,80.00
2019-05-29T01:55:39.265Z,79.92
2019-05-29T01:57:50.094Z,79.57
2019-05-29T02:00:01.128Z,79.69
2019-05-29T02:02:11.956Z,79.62
2019-05-29T02:04:24.064Z,79.68
2019-05-29T02:06:35.152Z,79.78
2019-05-29T02:08:45.958Z,80.00
2019-05-29T02:10:56.811Z,79.97
2019-05-29T02:13:07.634Z,79.79
2019-05-29T02:15:29.527Z,79.72
2019-05-29T02:17:31.414Z,79.77
2019-05-29T02:19:42.249Z,79.93
2019-05-29T02:21:53.085Z,79.93
2019-05-29T02:24:03.997Z,79.90
2019-05-29T02:26:16.029Z,79.96
2019-05-29T02:28:26.965Z,79.93
2019-05-29T02:30:37.805Z,79.95
2019-05-29T02:32:48.639Z,80.30
2019-05-29T02:34:59.456Z,80.68
2019-05-29T02:37:10.297Z,80.71
2019-05-29T02:39:22.562Z,81.04
2019-05-29T02:41:33.861Z,81.33
2019-05-29T02:43:44.677Z,81.54
2019-05-29T02:45:55.773Z,81.88
2019-05-29T02:48:06.694Z,82.36
2019-05-29T02:50:17.621Z,82.34
2019-05-29T02:52:29.070Z,82.85
2019-05-29T02:54:41.203Z,82.72
2019-05-29T02:56:52.024Z,83.00
2019-05-29T02:59:02.944Z,82.79
2019-05-29T03:01:13.750Z,82.62
2019-05-29T03:03:26.619Z,82.60
2019-05-29T03:05:37.536Z,82.43
2019-05-29T03:07:48.377Z,82.59
2019-05-29T03:10:01.223Z,82.65
2019-05-29T03:12:12.068Z,82.59
2019-05-29T03:14:23.026Z,82.45
2019-05-29T03:16:34.942Z,82.43
2019-05-29T03:18:45.976Z,82.56
2019-05-29T03:20:56.780Z,82.81
2019-05-29T03:23:07.635Z,82.77
2019-05-29T03:25:18.450Z,82.57
2019-05-29T03:27:31.971Z,82.11
2019-05-29T03:29:42.934Z,81.92
2019-05-29T03:31:53.742Z,81.72
2019-05-29T03:34:04.706Z,81.55
2019-05-29T03:36:15.626Z,81.38
2019-05-29T03:38:28.103Z,81.40
2019-05-29T03:40:39.211Z,81.42
2019-05-29T03:42:50.059Z,81.31
2019-05-29T03:45:00.965Z,81.40
2019-05-29T03:47:11.915Z,81.21
2019-05-29T03:49:22.797Z,81.30
2019-05-29T03:51:35.065Z,81.01
2019-05-29T03:53:46.574Z,81.11
2019-05-29T03:55:57.388Z,80.72
2019-05-29T03:58:08.211Z,80.83
2019-05-29T04:00:19.517Z,81.05
2019-05-29T04:02:31.259Z,80.79
2019-05-29T04:04:42.558Z,81.11
2019-05-29T04:06:54.633Z,81.12
2019-05-29T04:09:05.570Z,80.95
2019-05-29T04:11:16.375Z,81.09
2019-05-29T04:13:27.651Z,81.08
2019-05-29T04:15:41.130Z,80.91
2019-05-29T04:17:53.281Z,80.86
2019-05-29T04:20:05.299Z,80.86
2019-05-29T04:22:27.959Z,80.91
2019-05-29T04:24:38.834Z,80.71
2019-05-29T04:26:51.315Z,80.37
2019-05-29T04:29:02.273Z,80.27
2019-05-29T04:31:13.200Z,79.90
2019-05-29T04:33:24.019Z,80.05
2019-05-29T04:35:36.643Z,80.00
2019-05-29T04:37:47.601Z,79.84
2019-05-29T04:39:58.451Z,79.99
2019-05-29T04:42:09.311Z,80.00
2019-05-29T04:44:20.127Z,79.84
2019-05-29T04:46:31.745Z,79.79
2019-05-29T04:48:42.600Z,79.89
2019-05-29T04:50:53.442Z,79.96
2019-05-29T04:53:04.373Z,79.90
2019-05-29T04:55:15.194Z,79.91
2019-05-29T04:57:26.018Z,79.71
2019-05-29T04:59:37.087Z,79.74
2019-05-29T05:01:48.072Z,79.69
2019-05-29T05:03:58.934Z,84.42
2019-05-29T05:06:09.752Z,80.74
2019-05-29T05:08:20.577Z,77.93
2019-05-29T05:10:35.645Z,77.96
2019-05-29T05:12:46.693Z,77.85
2019-05-29T05:14:57.534Z,78.59
2019-05-29T05:17:24.964Z,79.04
2019-05-29T05:19:21.912Z,79.91
2019-05-29T05:21:33.947Z,80.29
2019-05-29T05:23:44.991Z,81.03
2019-05-29T05:25:55.808Z,82.05
2019-05-29T05:28:06.636Z,82.83
2019-05-29T05:30:17.553Z,82.68
2019-05-29T05:32:28.393Z,82.27
2019-05-29T05:34:39.228Z,82.18
2019-05-29T05:36:50.073Z,82.00
2019-05-29T05:39:00.984Z,81.83
2019-05-29T05:41:11.946Z,82.28
2019-05-29T05:43:24.338Z,82.54
2019-05-29T05:45:35.520Z,82.67
2019-05-29T05:47:56.970Z,81.31
2019-05-29T05:49:59.085Z,81.46
2019-05-29T05:52:10.037Z,81.84
2019-05-29T05:54:20.989Z,81.63
2019-05-29T05:56:31.813Z,82.46
2019-05-29T05:58:42.627Z,81.89
2019-05-29T06:00:53.544Z,81.83
2019-05-29T06:03:04.593Z,81.91
2019-05-29T06:05:15.527Z,81.87
2019-05-29T06:07:26.352Z,82.09
2019-05-29T06:09:38.178Z,82.17
2019-05-29T06:11:49.236Z,82.64
2019-05-29T06:14:00.256Z,82.58
2019-05-29T06:16:11.183Z,81.50
2019-05-29T06:18:22.142Z,81.71
2019-05-29T06:20:34.771Z,80.73
2019-05-29T06:22:45.596Z,80.56
2019-05-29T06:24:56.430Z,80.89
2019-05-29T06:27:07.240Z,81.35
2019-05-29T06:29:18.076Z,81.00
2019-05-29T06:31:28.912Z,79.37
2019-05-29T06:33:39.778Z,79.49
2019-05-29T06:35:50.585Z,79.44
2019-05-29T06:38:01.418Z,79.03
2019-05-29T06:40:31.376Z,78.89
2019-05-29T06:42:42.207Z,78.34
2019-05-29T06:44:53.049Z,78.83
2019-05-29T06:47:03.873Z,78.98
2019-05-29T06:49:14.732Z,77.48
2019-05-29T06:51:25.559Z,78.28
2019-05-29T06:53:37.761Z,78.38
2019-05-29T06:55:53.921Z,77.96
2019-05-29T06:58:01.750Z,78.09
2019-05-29T07:00:12.905Z,78.18
2019-05-29T07:02:23.938Z,77.45
2019-05-29T07:04:34.808Z,76.94
2019-05-29T07:06:46.762Z,76.19
2019-05-29T07:08:57.631Z,76.37
2019-05-29T07:11:08.452Z,77.05
2019-05-29T07:13:19.298Z,77.18
2019-05-29T07:15:30.125Z,76.38
2019-05-29T07:17:41.049Z,75.50
2019-05-29T07:20:00.745Z,76.61
2019-05-29T07:22:04.692Z,75.00
2019-05-29T07:24:15.515Z,74.28
2019-05-29T07:26:26.363Z,74.80
2019-05-29T07:28:55.490Z,74.36
2019-05-29T07:31:01.234Z,73.10
2019-05-29T07:33:03.630Z,74.16
2019-05-29T07:35:14.660Z,73.58
2019-05-29T07:37:25.463Z,73.45
2019-05-29T07:39:37.316Z,73.96
2019-05-29T07:41:48.368Z,73.93
2019-05-29T07:43:59.186Z,74.47
2019-05-29T07:46:10.034Z,73.19
2019-05-29T07:48:20.835Z,73.67
2019-05-29T07:50:31.694Z,73.50
2019-05-29T07:52:43.230Z,72.74
2019-05-29T07:54:55.373Z,72.58
2019-05-29T07:57:06.312Z,73.79
2019-05-29T07:59:17.159Z,73.45
2019-05-29T08:01:30.497Z,72.97
2019-05-29T08:03:41.237Z,71.90
2019-05-29T08:05:53.378Z,71.15
2019-05-29T08:08:04.410Z,70.26
2019-05-29T08:10:15.814Z,71.52
2019-05-29T08:12:26.765Z,70.60
2019-05-29T08:14:37.588Z,70.68
2019-05-29T08:16:48.435Z,70.88
2019-05-29T08:18:59.266Z,70.98
2019-05-29T08:21:10.109Z,70.09
2019-05-29T08:23:20.934Z,69.85
2019-05-29T08:25:31.763Z,69.44
2019-05-29T08:27:42.740Z,68.30
2019-05-29T08:29:53.555Z,68.61
2019-05-29T08:32:04.487Z,68.34
2019-05-29T08:34:15.333Z,68.00
2019-05-29T08:36:26.175Z,67.48
2019-05-29T08:38:37.009Z,67.92
2019-05-29T08:40:47.991Z,67.24
2019-05-29T08:42:58.832Z,68.33
2019-05-29T08:45:10.509Z,67.96
2019-05-29T08:47:21.295Z,66.66
2019-05-29T08:49:32.178Z,66.98
2019-05-29T08:51:43.899Z,66.94
2019-05-29T08:53:54.965Z,67.50
2019-05-29T08:56:05.983Z,67.66
2019-05-29T08:58:16.803Z,68.25
2019-05-29T09:00:27.627Z,68.14
2019-05-29T09:02:38.492Z,68.75
2019-05-29T09:04:50.166Z,69.74
2019-05-29T09:07:02.171Z,71.46
2019-05-29T09:09:13.226Z,70.82
2019-05-29T09:11:24.053Z,71.88
2019-05-29T09:13:34.911Z,70.54
2019-05-29T09:15:45.785Z,70.21
2019-05-29T09:17:56.628Z,70.37
2019-05-29T09:20:25.351Z,70.18
2019-05-29T09:22:21.101Z,69.31
2019-05-29T09:24:31.993Z,70.14
2019-05-29T09:26:46.325Z,70.83
2019-05-29T09:28:55.611Z,69.30
2019-05-29T09:31:06.442Z,68.62
2019-05-29T09:33:18.741Z,71.15
2019-05-29T09:35:30.025Z,67.88
2019-05-29T09:37:40.853Z,68.41
2019-05-29T09:39:51.714Z,68.85
2019-05-29T09:42:02.744Z,70.03
2019-05-29T09:44:28.172Z,70.83
2019-05-29T09:46:26.349Z,71.73
2019-05-29T09:48:49.330Z,72.66
2019-05-29T09:50:50.901Z,72.85
2019-05-29T09:53:02.672Z,72.68
2019-05-29T09:55:15.383Z,73.71
2019-05-29T09:57:26.216Z,73.63
2019-05-29T09:59:37.078Z,72.93
2019-05-29T10:01:47.935Z,71.72
2019-05-29T10:03:59.991Z,71.72
2019-05-29T10:06:11.631Z,70.59
2019-05-29T10:08:22.554Z,69.52
2019-05-29T10:10:33.385Z,69.56
2019-05-29T10:12:44.396Z,69.08
2019-05-29T10:14:56.035Z,63.45
2019-05-29T10:17:12.234Z,63.76
2019-05-29T10:19:20.661Z,65.91
2019-05-29T10:21:39.914Z,66.23
2019-05-29T10:23:44.350Z,66.66
2019-05-29T10:25:56.594Z,65.07
2019-05-29T10:28:08.203Z,65.01
2019-05-29T10:30:19.515Z,67.06
2019-05-29T10:32:30.358Z,65.65
2019-05-29T10:34:42.257Z,66.69
2019-05-29T10:36:54.770Z,65.78
2019-05-29T10:39:06.963Z,64.71
2019-05-29T10:41:17.808Z,65.78
2019-05-29T10:43:34.045Z,65.61
2019-05-29T10:45:41.388Z,64.84
2019-05-29T10:47:52.786Z,63.60
2019-05-29T10:50:06.828Z,64.77
2019-05-29T10:52:17.792Z,59.38
2019-05-29T10:54:28.560Z,59.54
2019-05-29T10:56:39.410Z,58.64
2019-05-29T10:58:56.141Z,59.52
2019-05-29T11:01:03.014Z,58.99
2019-05-29T11:03:13.862Z,57.58
2019-05-29T11:05:24.807Z,57.97
2019-05-29T11:07:36.148Z,59.89
2019-05-29T11:09:48.458Z,57.77
2019-05-29T11:11:59.568Z,57.87
2019-05-29T11:14:10.375Z,57.04
2019-05-29T11:16:21.228Z,53.42
2019-05-29T11:18:32.059Z,55.89
2019-05-29T11:20:42.902Z,56.79
2019-05-29T11:22:53.804Z,56.93
2019-05-29T11:25:21.490Z,58.69
2019-05-29T11:27:18.432Z,58.51
2019-05-29T11:29:29.283Z,57.43
2019-05-29T11:31:40.108Z,58.19
2019-05-29T11:33:50.958Z,56.90
2019-05-29T11:36:10.599Z,57.28
2019-05-29T11:38:14.603Z,58.13
2019-05-29T11:40:25.623Z,56.95
2019-05-29T11:42:36.508Z,57.13
2019-05-29T11:44:47.307Z,57.73
2019-05-29T11:46:58.318Z,56.65
2019-05-29T11:49:09.163Z,57.46
2019-05-29T11:51:20.010Z,57.86
2019-05-29T11:53:30.852Z,57.67
2019-05-29T11:55:41.672Z,54.35
2019-05-29T11:57:53.705Z,54.55
2019-05-29T12:00:18.066Z,54.55
2019-05-29T12:02:19.462Z,54.99
2019-05-29T12:04:30.255Z,55.81
2019-05-29T12:06:41.181Z,57.01
2019-05-29T12:08:53.498Z,59.58
2019-05-29T12:11:07.027Z,59.13
2019-05-29T12:13:17.502Z,59.49
2019-05-29T12:15:28.321Z,62.40
2019-05-29T12:17:39.567Z,63.76
2019-05-29T12:19:51.881Z,64.74
2019-05-29T12:22:03.081Z,66.28
2019-05-29T12:24:14.033Z,66.12
2019-05-29T12:26:24.859Z,68.10
2019-05-29T12:28:35.731Z,63.62
2019-05-29T12:30:46.642Z,65.50
2019-05-29T12:32:57.493Z,64.70
2019-05-29T12:35:09.199Z,65.09
2019-05-29T12:37:20.137Z,64.74
2019-05-29T12:39:31.000Z,64.12
2019-05-29T12:41:41.878Z,63.58
2019-05-29T12:43:53.265Z,63.27
2019-05-29T12:46:04.296Z,63.28
2019-05-29T12:48:16.241Z,63.66
2019-05-29T12:50:28.053Z,62.13
2019-05-29T12:52:39.503Z,61.09
2019-05-29T12:54:50.425Z,61.11
2019-05-29T12:57:02.305Z,60.21
2019-05-29T12:59:13.428Z,62.03
2019-05-29T13:01:24.343Z,61.45
2019-05-29T13:03:35.316Z,61.29
2019-05-29T13:05:46.175Z,60.40
2019-05-29T13:07:58.693Z,56.93
2019-05-29T13:10:10.278Z,55.47
2019-05-29T13:12:21.116Z,57.39
2019-05-29T13:14:32.066Z,57.71
2019-05-29T13:16:43.024Z,58.51
2019-05-29T13:18:54.871Z,58.96
2019-05-29T13:21:06.010Z,55.70
2019-05-29T13:23:16.827Z,56.80
2019-05-29T13:25:27.680Z,56.63
2019-05-29T13:27:38.516Z,57.48
2019-05-29T13:29:49.364Z,58.80
2019-05-29T13:32:02.142Z,56.87
2019-05-29T13:34:12.980Z,57.63
2019-05-29T13:36:23.833Z,56.73
2019-05-29T13:38:34.752Z,56.32
2019-05-29T13:40:45.655Z,55.71
2019-05-29T13:42:56.508Z,53.08
2019-05-29T13:45:17.379Z,55.65
2019-05-29T13:47:20.628Z,55.86
2019-05-29T13:49:31.433Z,54.31
2019-05-29T13:51:42.320Z,52.84
2019-05-29T13:54:03.701Z,55.18
2019-05-29T13:56:06.340Z,52.59
2019-05-29T13:58:17.196Z,54.38
2019-05-29T14:00:33.774Z,54.76
2019-05-29T14:02:41.774Z,54.44
2019-05-29T14:04:52.629Z,56.07
2019-05-29T14:07:08.797Z,55.29
2019-05-29T14:09:20.004Z,53.33
2019-05-29T14:11:30.856Z,54.16
2019-05-29T14:13:41.856Z,51.96
2019-05-29T14:15:52.908Z,53.25
2019-05-29T14:18:04.931Z,54.56
2019-05-29T14:20:17.428Z,56.55
2019-05-29T14:22:28.287Z,54.74
2019-05-29T14:24:39.139Z,56.25
2019-05-29T14:26:50.071Z,55.47
2019-05-29T14:29:01.431Z,56.06
2019-05-29T14:31:12.333Z,55.66
2019-05-29T14:33:23.166Z,56.61
2019-05-29T14:35:33.995Z,56.22
2019-05-29T14:37:44.950Z,56.32
2019-05-29T14:39:55.796Z,56.67
2019-05-29T14:42:08.257Z,55.41
2019-05-29T14:44:19.268Z,56.74
2019-05-29T14:46:30.137Z,55.30
2019-05-29T14:48:40.973Z,50.39
2019-05-29T14:50:51.841Z,50.12
2019-05-29T14:53:03.036Z,52.48
2019-05-29T14:55:18.023Z,51.61
2019-05-29T14:57:29.098Z,54.34
2019-05-29T14:59:39.943Z,53.22
2019-05-29T15:01:51.517Z,54.50
2019-05-29T15:04:03.612Z,56.01
2019-05-29T15:06:14.564Z,55.95
2019-05-29T15:08:25.518Z,57.65
2019-05-29T15:10:36.374Z,59.95
2019-05-29T15:12:47.212Z,61.37
2019-05-29T15:14:58.356Z,58.46
2019-05-29T15:17:09.194Z,57.36
2019-05-29T15:19:20.180Z,58.92
2019-05-29T15:21:30.964Z,61.29
2019-05-29T15:23:41.812Z,60.85
2019-05-29T15:25:52.633Z,59.63
2019-05-29T15:28:03.613Z,60.36
2019-05-29T15:30:20.779Z,60.62
2019-05-29T15:32:27.654Z,62.55
2019-05-29T15:34:38.514Z,60.91
2019-05-29T15:36:49.443Z,61.85
2019-05-29T15:39:00.386Z,61.60
2019-05-29T15:41:11.206Z,62.08
2019-05-29T15:43:22.081Z,62.10
2019-05-29T15:45:33.012Z,62.01
2019-05-29T15:47:43.835Z,63.81
2019-05-29T15:49:54.930Z,66.11
2019-05-29T15:52:07.013Z,67.30
2019-05-29T15:54:18.027Z,70.02
2019-05-29T15:56:28.858Z,70.62
2019-05-29T15:58:39.714Z,71.89
2019-05-29T16:00:50.554Z,72.09
2019-05-29T16:03:01.395Z,72.51
2019-05-29T16:05:13.223Z,73.68
2019-05-29T16:07:24.196Z,74.19
2019-05-29T16:09:35.041Z,75.26
2019-05-29T16:11:45.892Z,75.75
2019-05-29T16:13:56.755Z,75.53
2019-05-29T16:16:09.336Z,75.62
2019-05-29T16:18:28.144Z,75.84
2019-05-29T16:20:33.191Z,77.08
2019-05-29T16:22:44.022Z,77.81
2019-05-29T16:24:54.884Z,79.54
2019-05-29T16:27:08.882Z,79.21
2019-05-29T16:29:19.766Z,80.02
2019-05-29T16:31:30.744Z,80.31
2019-05-29T16:33:41.573Z,79.95
2019-05-29T16:35:52.506Z,79.81
2019-05-29T16:38:03.406Z,78.42
2019-05-29T16:40:16.146Z,78.57
2019-05-29T16:42:27.297Z,78.38
2019-05-29T16:44:38.131Z,78.27
2019-05-29T16:46:49.098Z,77.84
2019-05-29T16:48:59.927Z,78.36
2019-05-29T16:51:10.844Z,80.14
2019-05-29T16:53:23.099Z,80.44
2019-05-29T16:55:34.268Z,80.66
2019-05-29T16:57:45.125Z,80.44
2019-05-29T16:59:56.005Z,79.80
2019-05-29T17:02:06.938Z,79.63
2019-05-29T17:04:17.893Z,79.44
2019-05-29T17:06:28.729Z,80.72
2019-05-29T17:08:39.605Z,79.67
2019-05-29T17:10:50.449Z,79.47
2019-05-29T17:13:01.301Z,79.26
2019-05-29T17:15:14.986Z,77.87
2019-05-29T17:17:26.116Z,76.47
2019-05-29T17:19:37.555Z,73.99
2019-05-29T17:21:48.551Z,71.94
2019-05-29T17:23:59.514Z,69.72
2019-05-29T17:26:11.315Z,69.98
2019-05-29T17:28:25.011Z,71.13
2019-05-29T17:30:35.075Z,71.90
2019-05-29T17:32:45.967Z,72.53
2019-05-29T17:34:56.780Z,74.78
2019-05-29T17:37:07.666Z,74.56
2019-05-29T17:39:19.938Z,74.57
2019-05-29T17:41:31.273Z,74.78
2019-05-29T17:43:42.131Z,75.51
2019-05-29T17:45:53.064Z,76.90
2019-05-29T17:48:04.106Z,77.11
2019-05-29T17:50:18.430Z,76.78
2019-05-29T17:52:27.955Z,75.21
2019-05-29T17:54:38.809Z,75.77
2019-05-29T17:56:49.708Z,75.94
2019-05-29T17:59:00.649Z,75.58
2019-05-29T18:01:11.470Z,74.93
2019-05-29T18:03:22.336Z,75.75
2019-05-29T18:05:36.741Z,76.00
2019-05-29T18:07:46.034Z,76.82
2019-05-29T18:09:56.855Z,77.46
2019-05-29T18:12:07.796Z,77.31
2019-05-29T18:14:19.218Z,77.69
2019-05-29T18:16:30.113Z,79.26
2019-05-29T18:18:41.176Z,78.80
2019-05-29T18:20:52.005Z,78.40
2019-05-29T18:23:02.979Z,78.50
2019-05-29T18:25:15.805Z,78.52
2019-05-29T18:27:26.658Z,78.41
2019-05-29T18:29:37.535Z,78.60
2019-05-29T18:31:48.469Z,78.64
2019-05-29T18:33:59.327Z,78.82
2019-05-29T18:36:10.298Z,77.93
2019-05-29T18:38:22.375Z,77.96
2019-05-29T18:40:33.390Z,77.95
2019-05-29T18:42:44.257Z,78.28
2019-05-29T18:44:55.123Z,78.67
2019-05-29T18:47:05.988Z,79.33
2019-05-29T18:49:16.843Z,80.17
2019-05-29T18:51:28.677Z,80.57
2019-05-29T18:53:39.678Z,80.03
2019-05-29T18:55:50.546Z,80.30
2019-05-29T18:58:02.110Z,80.80
2019-05-29T19:00:13.564Z,81.40
2019-05-29T19:02:25.380Z,81.58
2019-05-29T19:04:36.383Z,82.32
2019-05-29T19:06:47.232Z,82.26
2019-05-29T19:08:58.082Z,81.99
2019-05-29T19:11:08.928Z,82.12
2019-05-29T19:13:19.865Z,82.22
2019-05-29T19:15:32.103Z,82.42
2019-05-29T19:17:43.083Z,82.85
2019-05-29T19:19:53.957Z,82.90
2019-05-29T19:22:04.897Z,83.33
2019-05-29T19:24:15.895Z,83.21
2019-05-29T19:26:26.764Z,83.54
2019-05-29T19:28:37.568Z,83.71
2019-05-29T19:30:48.426Z,84.01
2019-05-29T19:32:59.260Z,84.27
2019-05-29T19:35:10.732Z,84.74
2019-05-29T19:37:21.553Z,84.97
2019-05-29T19:39:32.499Z,84.98
2019-05-29T19:41:43.364Z,85.29
2019-05-29T19:43:54.216Z,85.49
2019-05-29T19:46:05.193Z,85.30
2019-05-29T19:48:16.009Z,85.21
2019-05-29T19:50:26.982Z,85.09
2019-05-29T19:52:37.945Z,85.02
2019-05-29T19:54:48.786Z,85.20
2019-05-29T19:56:59.661Z,85.29
2019-05-29T19:59:10.504Z,85.36
2019-05-29T20:01:30.758Z,85.62
2019-05-29T20:03:34.656Z,85.84
2019-05-29T20:05:45.741Z,85.81
2019-05-29T20:07:56.607Z,85.62
2019-05-29T20:10:08.151Z,85.30
2019-05-29T20:12:19.031Z,85.04
2019-05-29T20:14:29.880Z,85.32
2019-05-29T20:16:40.742Z,85.49
2019-05-29T20:18:52.192Z,85.73
2019-05-29T20:21:03.132Z,86.13
2019-05-29T20:23:13.975Z,86.50
2019-05-29T20:25:24.987Z,86.58
2019-05-29T20:27:36.293Z,86.63
2019-05-29T20:29:47.254Z,86.31
2019-05-29T20:31:58.273Z,86.19
2019-05-29T20:34:09.152Z,86.24
2019-05-29T20:36:20.111Z,86.08
2019-05-29T20:38:31.116Z,100.00
2019-05-29T20:40:41.965Z,85.63
2019-05-29T20:42:52.967Z,85.63
2019-05-29T20:45:05.449Z,85.80
2019-05-29T20:47:16.330Z,86.33
2019-05-29T20:49:27.280Z,86.55
2019-05-29T20:51:38.345Z,86.84
2019-05-29T20:53:49.185Z,87.07
2019-05-29T20:56:00.106Z,86.70
2019-05-29T20:58:23.977Z,86.49
2019-05-29T21:00:23.974Z,86.59
2019-05-29T21:02:35.864Z,86.82
2019-05-29T21:04:46.982Z,86.88
2019-05-29T21:06:57.819Z,86.94
2019-05-29T21:09:08.737Z,87.15
2019-05-29T21:11:19.581Z,86.99
2019-05-29T21:13:30.459Z,86.92
2019-05-29T21:15:41.824Z,87.03
2019-05-29T21:17:52.864Z,87.20
2019-05-29T21:20:05.810Z,87.13
2019-05-29T21:22:16.634Z,86.86
2019-05-29T21:24:27.504Z,87.09
2019-05-29T21:26:38.939Z,86.93
2019-05-29T21:28:50.797Z,87.07
2019-05-29T21:31:01.824Z,87.52
2019-05-29T21:33:14.684Z,87.45
2019-05-29T21:35:27.415Z,87.41
2019-05-29T21:37:38.359Z,87.35
2019-05-29T21:39:49.201Z,87.28
2019-05-29T21:42:00.029Z,87.40
2019-05-29T21:44:10.914Z,87.40
2019-05-29T21:46:21.750Z,86.93
2019-05-29T21:48:32.705Z,86.94
2019-05-29T21:50:43.545Z,86.95
2019-05-29T21:52:54.367Z,86.70
2019-05-29T21:55:05.397Z,86.46
2019-05-29T21:57:16.332Z,86.44
2019-05-29T21:59:27.280Z,86.42
2019-05-29T22:01:38.225Z,86.80
2019-05-29T22:03:49.170Z,87.09
2019-05-29T22:06:00.107Z,87.26
2019-05-29T22:08:10.943Z,88.08
2019-05-29T22:10:21.808Z,88.59
2019-05-29T22:12:32.840Z,88.64
2019-05-29T22:14:43.806Z,88.53
2019-05-29T22:16:55.014Z,88.34
2019-05-29T22:19:06.169Z,88.07
2019-05-29T22:21:17.104Z,88.21
2019-05-29T22:23:27.966Z,88.34
2019-05-29T22:25:38.927Z,88.08
2019-05-29T22:27:51.177Z,88.08
2019-05-29T22:30:03.901Z,88.02
2019-05-29T22:32:14.808Z,88.04
2019-05-29T22:34:25.732Z,87.92
2019-05-29T22:36:36.679Z,87.96
2019-05-29T22:38:47.505Z,87.79
2019-05-29T22:40:59.609Z,87.67
2019-05-29T22:43:10.718Z,87.67
2019-05-29T22:45:21.565Z,87.48
2019-05-29T22:47:32.388Z,87.35
2019-05-29T22:49:43.334Z,87.41
2019-05-29T22:51:54.219Z,87.66
2019-05-29T22:54:05.142Z,87.89
2019-05-29T22:56:16.088Z,87.84
2019-05-29T22:58:27.019Z,87.73
2019-05-29T23:00:37.937Z,87.61
2019-05-29T23:02:48.896Z,87.96
2019-05-29T23:05:00.569Z,87.89
2019-05-29T23:07:11.502Z,87.52
2019-05-29T23:09:22.474Z,87.40
2019-05-29T23:11:33.393Z,87.40
2019-05-29T23:13:44.224Z,87.29
2019-05-29T23:15:56.574Z,87.40
2019-05-29T23:18:07.529Z,87.33
2019-05-29T23:20:18.446Z,87.42
2019-05-29T23:22:29.274Z,87.59
2019-05-29T23:24:40.204Z,87.87
2019-05-29T23:26:51.071Z,87.93
2019-05-29T23:29:03.801Z,87.75
2019-05-29T23:31:14.817Z,87.97
2019-05-29T23:33:25.672Z,88.29
2019-05-29T23:35:36.503Z,88.12
2019-05-29T23:37:47.429Z,88.12
2019-05-29T23:39:59.300Z,88.33
2019-05-29T23:42:10.221Z,88.22
2019-05-29T23:44:21.140Z,87.86
2019-05-29T23:46:31.968Z,87.90
2019-05-29T23:48:42.827Z,87.75
2019-05-29T23:50:53.776Z,87.63
2019-05-29T23:53:04.671Z,87.80
2019-05-29T23:55:15.921Z,87.76
2019-05-29T23:57:26.769Z,87.87
2019-05-29T23:59:37.710Z,87.87
